首页
METAR-TAF:

METAR-TAF

机场 :

Morganton, 北卡罗来纳州, 美国

纬度: 35-49-17N, 经度: 081-36-39W, 海拔: 387米

当前天气观测

该预报发布于21分钟前的18:15 UTC
风速3节,风向
温度 4°C
湿度 100%
气压 1017 hPa
能見度: 4.0公里
多云层高于200英尺
阴天层高于1000英尺

METAR: KMRN 241815Z AUTO 35003KT 2 1/2SM RA BKN002 OVC010 04/04 A3004 RMK AO2 P0004 T00410035

时间: 13:36 (18:36 UTC)


TAF: 丢失

超过4000个机场的气象观测和天气预报(METAR&TAF报告)。

可查询的气象台以黄色和红色小点在地图上表示。

将鼠标移到小点上方,可查看气象台名称。

然后点击查看天气观测和预报。

如需切换地图:点击带黑十字的绿色按钮放大地图;点击带横线的绿色按钮缩小地图;或者点击绿色箭头查看邻近地区的地图。


METAR-TAF: